Time;durP1;ratioP1;P1;durP2;ratioP2;P2;SDS_P1;SDS_P2;PMS_P1;PMS_P2;Temp;Humidity;BMP_temperature;BMP_pressure;BME280_temperature;BME280_humidity;BME280_pressure;Samples;Min_cycle;Max_cycle;Signal;HPM_P1;HPM_P2
2021/11/28 00:00:33;;;;;;;39.73;36.87;;;2.30;99.90;;;;;;4879153;29;20472;-76
2021/11/28 00:03:02;;;;;;;39.63;36.53;;;2.20;99.90;;;;;;4879061;29;20496;-75
2021/11/28 00:05:29;;;;;;;38.33;35.43;;;2.20;99.90;;;;;;4878721;29;20482;-76
2021/11/28 00:08:16;;;;;;;37.23;34.63;;;2.10;99.90;;;;;;4879104;29;20545;-74
2021/11/28 00:10:58;;;;;;;39.53;36.93;;;2.10;99.90;;;;;;4878983;29;20496;-74
2021/11/28 00:13:45;;;;;;;38.53;35.53;;;2.30;99.90;;;;;;4878794;29;20839;-74
2021/11/28 00:16:13;;;;;;;37.37;34.90;;;2.30;99.90;;;;;;4879094;29;20805;-75
2021/11/28 00:18:40;;;;;;;37.63;35.03;;;2.30;99.90;;;;;;4878770;29;20470;-75
2021/11/28 00:21:09;;;;;;;37.93;35.50;;;2.30;99.90;;;;;;4878471;29;20459;-75
2021/11/28 00:23:36;;;;;;;34.10;31.90;;;2.20;99.90;;;;;;4878739;29;20998;-76
2021/11/28 00:26:03;;;;;;;33.57;31.20;;;2.20;99.90;;;;;;4878826;29;20453;-76
2021/11/28 00:28:30;;;;;;;34.77;32.20;;;2.10;99.90;;;;;;4878577;29;20458;-76
2021/11/28 00:30:57;;;;;;;36.20;32.87;;;2.20;99.90;;;;;;4878522;29;20552;-76
2021/11/28 00:33:25;;;;;;;33.70;31.23;;;2.20;99.90;;;;;;4878565;29;20457;-76
2021/11/28 00:35:52;;;;;;;33.10;30.87;;;2.20;99.90;;;;;;4878417;29;20486;-76
2021/11/28 00:38:18;;;;;;;32.33;30.20;;;2.20;99.90;;;;;;4878275;29;21030;-76
2021/11/28 00:40:45;;;;;;;32.77;30.57;;;2.20;99.90;;;;;;4877724;29;20457;-78
2021/11/28 00:43:12;;;;;;;31.10;29.00;;;2.20;99.90;;;;;;4878420;29;20831;-78
2021/11/28 00:45:38;;;;;;;32.33;29.80;;;2.30;99.90;;;;;;4878470;29;20468;-76
2021/11/28 00:48:05;;;;;;;33.40;31.20;;;2.30;99.90;;;;;;4878303;29;20936;-75
2021/11/28 00:50:45;;;;;;;31.07;28.97;;;2.30;99.90;;;;;;4878129;29;20887;-75
2021/11/28 00:53:13;;;;;;;31.10;28.90;;;2.30;99.90;;;;;;4877941;29;20978;-76
2021/11/28 00:55:40;;;;;;;30.03;28.03;;;2.40;99.90;;;;;;4878276;29;20463;-76
2021/11/28 00:58:07;;;;;;;30.83;28.67;;;2.30;99.90;;;;;;4878338;29;20458;-76
2021/11/28 01:00:34;;;;;;;29.93;27.80;;;2.40;99.90;;;;;;4878155;29;20456;-77
2021/11/28 01:03:00;;;;;;;28.83;26.63;;;2.30;99.90;;;;;;4877786;29;20457;-77
2021/11/28 01:05:27;;;;;;;27.80;26.07;;;2.30;99.90;;;;;;4878015;29;20467;-77
2021/11/28 01:07:55;;;;;;;27.27;25.10;;;2.30;99.90;;;;;;4878153;29;20951;-78
2021/11/28 01:10:22;;;;;;;28.10;25.80;;;2.30;99.90;;;;;;4878138;29;20494;-79
2021/11/28 01:12:49;;;;;;;25.73;23.70;;;2.30;99.90;;;;;;4877797;29;20538;-78
2021/11/28 01:15:17;;;;;;;26.47;24.67;;;2.40;99.90;;;;;;4877432;29;20463;-78
2021/11/28 01:17:44;;;;;;;26.07;24.37;;;2.50;99.90;;;;;;4878089;29;20872;-79
2021/11/28 01:20:12;;;;;;;25.40;23.60;;;2.50;99.90;;;;;;4877818;29;20487;-80
2021/11/28 01:22:39;;;;;;;26.53;24.50;;;2.60;99.90;;;;;;4877753;29;20954;-80
2021/11/28 01:25:11;;;;;;;25.83;23.83;;;2.60;99.90;;;;;;4877900;29;20810;-81
2021/11/28 01:27:38;;;;;;;26.13;24.23;;;2.70;99.90;;;;;;4877617;29;20492;-81
2021/11/28 01:30:06;;;;;;;25.30;23.20;;;2.80;99.90;;;;;;4877603;29;20460;-80
2021/11/28 01:32:35;;;;;;;25.93;24.03;;;2.80;99.90;;;;;;4877490;29;20496;-77
2021/11/28 01:35:02;;;;;;;26.10;24.20;;;2.90;99.90;;;;;;4877349;29;20482;-77
2021/11/28 01:37:28;;;;;;;26.20;24.20;;;2.90;99.90;;;;;;4877124;29;21029;-77
2021/11/28 01:39:55;;;;;;;26.07;23.90;;;2.80;99.90;;;;;;4877449;29;20463;-76
2021/11/28 01:42:42;;;;;;;24.70;22.97;;;2.90;99.90;;;;;;4877471;29;20458;-77
2021/11/28 01:45:11;;;;;;;23.80;22.10;;;2.90;99.90;;;;;;4877374;29;20467;-78
2021/11/28 01:47:38;;;;;;;23.67;22.07;;;2.90;99.90;;;;;;4877476;29;20468;-77
2021/11/28 01:50:05;;;;;;;23.87;22.07;;;2.80;99.90;;;;;;4877352;29;20470;-77
2021/11/28 01:52:34;;;;;;;22.30;20.80;;;2.70;99.90;;;;;;4876713;29;20655;-77
2021/11/28 01:55:01;;;;;;;23.33;21.70;;;2.70;99.90;;;;;;4877267;29;20897;-77
2021/11/28 01:57:28;;;;;;;22.37;20.67;;;2.80;99.90;;;;;;4877195;29;20514;-77
2021/11/28 01:59:56;;;;;;;23.70;21.83;;;2.80;99.90;;;;;;4877234;29;20521;-77
2021/11/28 02:02:23;;;;;;;22.83;21.50;;;2.80;99.90;;;;;;4877195;29;20476;-78
2021/11/28 02:04:51;;;;;;;27.53;25.53;;;2.70;99.90;;;;;;4877062;29;20963;-77
2021/11/28 02:07:18;;;;;;;25.60;23.70;;;2.70;99.90;;;;;;4877164;29;20820;-79
2021/11/28 02:09:45;;;;;;;25.50;23.70;;;2.80;99.90;;;;;;4877192;29;20515;-78
2021/11/28 02:12:12;;;;;;;24.17;22.57;;;2.80;99.90;;;;;;4877055;29;20498;-80
2021/11/28 02:14:38;;;;;;;25.80;23.87;;;2.90;99.90;;;;;;4876704;29;20804;-80
2021/11/28 02:17:07;;;;;;;25.00;23.40;;;2.90;99.90;;;;;;4876545;29;20848;-79
2021/11/28 02:19:33;;;;;;;25.13;23.13;;;2.90;99.90;;;;;;4876626;29;20882;-80
2021/11/28 02:22:02;;;;;;;25.23;23.47;;;2.90;99.90;;;;;;4876636;29;20973;-80
2021/11/28 02:24:28;;;;;;;24.17;22.67;;;2.80;99.90;;;;;;4876779;29;20468;-80
2021/11/28 02:26:55;;;;;;;24.10;22.00;;;2.90;99.90;;;;;;4876417;29;20461;-77
2021/11/28 02:29:22;;;;;;;24.00;22.40;;;2.80;99.90;;;;;;4876621;29;20466;-77
2021/11/28 02:31:49;;;;;;;25.37;23.50;;;2.80;99.90;;;;;;4876627;29;20495;-77
2021/11/28 02:34:17;;;;;;;24.87;22.97;;;2.80;99.90;;;;;;4876683;29;20549;-77
2021/11/28 02:36:44;;;;;;;24.13;22.37;;;2.80;99.90;;;;;;4876361;29;20490;-76
2021/11/28 02:39:12;;;;;;;26.27;24.17;;;2.80;99.90;;;;;;4876580;29;20460;-77
2021/11/28 02:41:39;;;;;;;24.93;23.23;;;2.90;99.90;;;;;;4876248;29;20463;-76
2021/11/28 02:44:06;;;;;;;24.30;22.50;;;3.00;99.90;;;;;;4876482;29;20456;-76
2021/11/28 02:46:33;;;;;;;25.00;23.20;;;3.00;99.90;;;;;;4876979;29;20699;-78
2021/11/28 02:49:00;;;;;;;24.83;22.93;;;3.10;99.90;;;;;;4876673;29;20460;-78
2021/11/28 02:51:26;;;;;;;24.40;22.70;;;3.20;99.90;;;;;;4876465;29;20496;-76
2021/11/28 02:53:53;;;;;;;24.90;23.13;;;3.10;99.90;;;;;;4876130;29;20453;-73
2021/11/28 02:56:21;;;;;;;21.87;20.63;;;3.10;99.90;;;;;;4876394;29;20462;-76
2021/11/28 02:58:48;;;;;;;21.60;20.10;;;3.10;99.90;;;;;;4876385;29;20533;-76
2021/11/28 03:01:19;;;;;;;21.67;20.07;;;3.20;99.90;;;;;;4876741;29;20857;-76
2021/11/28 03:03:46;;;;;;;21.90;20.40;;;3.10;99.90;;;;;;4876609;29;20548;-80
2021/11/28 03:06:13;;;;;;;21.73;20.23;;;3.00;99.90;;;;;;4880129;29;20542;-80
2021/11/28 03:08:40;;;;;;;23.50;21.83;;;2.90;99.90;;;;;;4880078;29;20519;-79
2021/11/28 03:11:08;;;;;;;22.97;21.57;;;2.80;99.90;;;;;;4879722;29;20547;-78
2021/11/28 03:13:40;;;;;;;21.00;19.67;;;2.80;99.90;;;;;;4879616;29;20490;-81
2021/11/28 03:16:09;;;;;;;21.30;19.73;;;2.90;99.90;;;;;;4879341;29;20456;-81
2021/11/28 03:18:37;;;;;;;19.90;18.50;;;2.80;99.90;;;;;;4879698;29;20463;-79
2021/11/28 03:21:07;;;;;;;20.43;19.23;;;3.00;99.90;;;;;;4879320;29;20965;-76
2021/11/28 03:23:36;;;;;;;21.53;19.80;;;2.90;99.90;;;;;;4879413;29;20841;-76
2021/11/28 03:26:08;;;;;;;21.57;20.07;;;3.00;99.90;;;;;;4879400;29;20469;-76
2021/11/28 03:28:36;;;;;;;20.80;19.30;;;3.00;99.90;;;;;;4879253;29;20460;-77
2021/11/28 03:31:03;;;;;;;20.43;18.77;;;3.10;99.90;;;;;;4879307;29;20494;-78
2021/11/28 03:33:30;;;;;;;20.50;19.13;;;3.10;99.90;;;;;;4879398;29;20738;-78
2021/11/28 03:35:57;;;;;;;19.73;18.40;;;3.00;99.90;;;;;;4878802;29;20486;-78
2021/11/28 03:38:24;;;;;;;21.03;19.57;;;2.90;99.90;;;;;;4879260;29;20455;-78
2021/11/28 03:40:51;;;;;;;20.83;19.13;;;3.10;99.90;;;;;;4879613;29;20544;-76
2021/11/28 03:43:18;;;;;;;21.10;19.70;;;2.90;99.90;;;;;;4879352;29;20503;-75
2021/11/28 03:45:46;;;;;;;19.40;17.93;;;2.90;99.90;;;;;;4879224;29;20461;-76
2021/11/28 03:48:13;;;;;;;20.30;19.00;;;2.80;99.90;;;;;;4879106;29;20870;-77
2021/11/28 03:50:39;;;;;;;21.30;19.70;;;2.80;99.90;;;;;;4878834;29;20956;-76
2021/11/28 03:53:06;;;;;;;21.10;19.57;;;2.80;99.90;;;;;;4878953;29;20615;-76
2021/11/28 03:55:33;;;;;;;20.13;18.83;;;2.70;99.90;;;;;;4879289;29;20464;-75
2021/11/28 03:58:00;;;;;;;22.67;20.97;;;2.70;99.90;;;;;;4879043;29;20457;-76
2021/11/28 04:00:27;;;;;;;20.80;19.23;;;2.70;99.90;;;;;;4879098;29;20483;-75
2021/11/28 04:02:55;;;;;;;20.63;18.80;;;2.70;99.90;;;;;;4878722;29;20460;-76
2021/11/28 04:05:22;;;;;;;20.53;19.23;;;2.70;99.90;;;;;;4878604;29;20464;-76
2021/11/28 04:07:48;;;;;;;22.07;20.57;;;2.60;99.90;;;;;;4878909;29;20942;-77
2021/11/28 04:10:15;;;;;;;21.27;19.77;;;2.60;99.90;;;;;;4878932;29;20462;-78
2021/11/28 04:12:42;;;;;;;22.33;20.37;;;2.60;99.90;;;;;;4878621;29;20561;-77
2021/11/28 04:15:10;;;;;;;22.50;20.90;;;2.50;99.90;;;;;;4877980;29;20807;-77
2021/11/28 04:17:37;;;;;;;21.23;19.83;;;2.60;99.90;;;;;;4878189;29;20466;-77
2021/11/28 04:20:07;;;;;;;24.97;23.07;;;2.60;99.90;;;;;;4878383;29;20939;-78
2021/11/28 04:22:34;;;;;;;23.37;21.77;;;2.60;99.90;;;;;;4878326;29;20454;-78
2021/11/28 04:25:01;;;;;;;22.63;20.93;;;2.60;99.90;;;;;;4878337;29;20467;-78
2021/11/28 04:27:28;;;;;;;21.60;20.10;;;2.60;99.90;;;;;;4878128;29;20460;-78
2021/11/28 04:29:55;;;;;;;21.90;20.37;;;2.60;99.90;;;;;;4878151;29;20461;-79
2021/11/28 04:32:22;;;;;;;21.17;19.77;;;2.60;99.90;;;;;;4878137;29;20503;-79
2021/11/28 04:34:48;;;;;;;23.23;21.33;;;2.60;99.90;;;;;;4877867;29;20461;-78
2021/11/28 04:37:16;;;;;;;21.00;19.57;;;2.70;99.90;;;;;;4877880;29;20488;-78
2021/11/28 04:39:43;;;;;;;23.40;21.50;;;2.80;99.90;;;;;;4878182;29;20471;-77
2021/11/28 04:42:10;;;;;;;23.83;22.03;;;2.90;99.90;;;;;;4878121;29;20460;-76
2021/11/28 04:44:37;;;;;;;22.93;21.13;;;2.90;99.90;;;;;;4878428;29;20541;-77
2021/11/28 04:47:04;;;;;;;24.13;22.33;;;3.00;99.90;;;;;;4877867;29;20460;-79
2021/11/28 04:49:31;;;;;;;21.73;20.30;;;3.00;99.90;;;;;;4877894;29;20487;-79
2021/11/28 04:51:58;;;;;;;22.40;20.70;;;3.10;99.90;;;;;;4877931;29;20498;-79
2021/11/28 04:54:26;;;;;;;22.33;20.83;;;3.10;99.90;;;;;;4877878;29;20493;-79
2021/11/28 04:56:53;;;;;;;20.47;19.07;;;3.20;99.90;;;;;;4878040;29;20474;-78
2021/11/28 04:59:20;;;;;;;20.93;19.53;;;3.10;99.90;;;;;;4877748;29;20462;-77
2021/11/28 05:01:46;;;;;;;22.17;20.67;;;3.20;99.90;;;;;;4877723;29;20452;-78
2021/11/28 05:04:13;;;;;;;21.73;20.03;;;3.10;99.90;;;;;;4877805;29;20466;-75
2021/11/28 05:06:40;;;;;;;21.53;19.97;;;3.00;99.90;;;;;;4877574;29;20461;-75
2021/11/28 05:09:07;;;;;;;20.97;19.47;;;3.00;99.90;;;;;;4877603;29;20463;-75
2021/11/28 05:11:35;;;;;;;21.50;19.70;;;2.90;99.90;;;;;;4877173;29;20492;-76
2021/11/28 05:14:03;;;;;;;20.70;19.27;;;2.80;99.90;;;;;;4877687;29;20469;-75
2021/11/28 05:16:30;;;;;;;21.97;20.27;;;2.70;99.90;;;;;;4877554;29;20457;-77
2021/11/28 05:18:56;;;;;;;21.43;19.93;;;2.70;99.90;;;;;;4877502;29;20465;-76
2021/11/28 05:21:23;;;;;;;21.17;19.50;;;2.70;99.90;;;;;;4877121;29;20507;-77
2021/11/28 05:23:50;;;;;;;21.63;20.07;;;2.70;99.90;;;;;;4877434;29;20949;-75
2021/11/28 05:26:17;;;;;;;21.50;20.20;;;2.60;99.90;;;;;;4877428;29;20456;-78
2021/11/28 05:28:45;;;;;;;22.50;21.10;;;2.80;99.90;;;;;;4877081;29;20459;-77
2021/11/28 05:31:17;;;;;;;22.37;20.40;;;2.80;99.90;;;;;;4877172;29;20460;-78
2021/11/28 05:33:45;;;;;;;22.10;20.57;;;2.70;99.90;;;;;;4877346;29;21031;-77
2021/11/28 05:36:12;;;;;;;22.53;20.93;;;2.80;99.90;;;;;;4876791;29;20936;-75
2021/11/28 05:38:39;;;;;;;21.37;19.83;;;2.90;99.90;;;;;;4877256;29;20580;-76
2021/11/28 05:41:06;;;;;;;21.60;20.10;;;2.90;99.90;;;;;;4877088;29;20470;-77
2021/11/28 05:43:36;;;;;;;21.33;19.83;;;2.90;99.90;;;;;;4876945;29;20456;-77
2021/11/28 05:46:04;;;;;;;21.17;19.90;;;3.00;99.90;;;;;;4876930;29;20562;-77
2021/11/28 05:48:31;;;;;;;24.37;22.30;;;3.00;99.90;;;;;;4876863;29;20830;-76
2021/11/28 05:50:58;;;;;;;22.97;21.43;;;3.00;99.90;;;;;;4876959;29;20893;-76
2021/11/28 05:53:26;;;;;;;23.00;21.27;;;3.00;99.90;;;;;;4877182;29;20492;-77
2021/11/28 05:55:53;;;;;;;22.10;20.60;;;3.00;99.90;;;;;;4876831;29;20504;-75
2021/11/28 05:58:20;;;;;;;22.03;20.37;;;2.90;99.90;;;;;;4876931;29;20525;-76
2021/11/28 06:00:46;;;;;;;21.70;20.07;;;2.90;99.90;;;;;;4876824;29;20491;-76
2021/11/28 06:03:14;;;;;;;21.03;19.53;;;2.80;99.90;;;;;;4876644;29;20510;-76
2021/11/28 06:05:43;;;;;;;20.93;19.63;;;2.90;99.90;;;;;;4877132;29;20460;-76
2021/11/28 06:08:09;;;;;;;21.07;19.40;;;2.90;99.90;;;;;;4876861;29;20467;-76
2021/11/28 06:10:36;;;;;;;21.03;19.53;;;2.90;99.90;;;;;;4876752;29;20468;-76
2021/11/28 06:13:03;;;;;;;20.40;18.90;;;2.90;99.90;;;;;;4876669;29;20518;-75
2021/11/28 06:15:30;;;;;;;19.30;17.90;;;2.90;99.90;;;;;;4876688;29;20459;-76
2021/11/28 06:17:57;;;;;;;19.30;18.00;;;2.90;99.90;;;;;;4876780;29;20558;-76
2021/11/28 06:20:25;;;;;;;20.70;19.17;;;2.80;99.90;;;;;;4876617;29;20972;-75
2021/11/28 06:22:52;;;;;;;19.93;18.40;;;2.90;99.90;;;;;;4876684;29;20455;-75
2021/11/28 06:25:20;;;;;;;19.60;18.10;;;3.10;99.90;;;;;;4876550;29;20475;-76
2021/11/28 06:27:46;;;;;;;19.87;18.40;;;3.00;99.90;;;;;;4876626;29;20457;-77
2021/11/28 06:30:13;;;;;;;19.80;18.50;;;3.00;99.90;;;;;;4876736;29;20462;-78
2021/11/28 06:32:40;;;;;;;21.00;19.60;;;2.90;99.90;;;;;;4876556;29;20906;-80
2021/11/28 06:35:08;;;;;;;20.33;18.93;;;2.90;99.90;;;;;;4876504;29;20493;-78
2021/11/28 06:37:36;;;;;;;20.40;19.10;;;2.90;99.90;;;;;;4876296;29;20500;-78
2021/11/28 06:40:03;;;;;;;21.50;19.80;;;2.90;99.90;;;;;;4879085;29;20456;-75
2021/11/28 06:42:30;;;;;;;22.47;20.87;;;2.90;99.90;;;;;;4880351;29;20637;-77
2021/11/28 06:44:56;;;;;;;20.93;19.63;;;2.80;99.90;;;;;;4880637;29;20500;-78
2021/11/28 06:47:23;;;;;;;22.30;20.63;;;2.80;99.90;;;;;;4879894;29;20465;-78
2021/11/28 06:49:50;;;;;;;20.90;19.57;;;2.80;99.90;;;;;;4880166;29;20516;-78
2021/11/28 06:52:17;;;;;;;20.33;19.03;;;2.80;99.90;;;;;;4880106;29;20543;-79
2021/11/28 06:54:45;;;;;;;22.77;20.87;;;2.80;99.90;;;;;;4880014;29;20455;-76
2021/11/28 06:57:11;;;;;;;22.17;20.70;;;2.80;99.90;;;;;;4879854;29;20997;-77
2021/11/28 06:59:38;;;;;;;21.10;19.60;;;2.70;99.90;;;;;;4880107;29;20459;-76
2021/11/28 07:02:05;;;;;;;21.17;19.67;;;2.80;99.90;;;;;;4880109;29;20458;-75
2021/11/28 07:04:32;;;;;;;20.17;18.77;;;2.80;99.90;;;;;;4879889;29;20514;-75
2021/11/28 07:06:58;;;;;;;20.67;19.00;;;2.80;99.90;;;;;;4879815;29;20458;-75
2021/11/28 07:09:27;;;;;;;21.37;19.90;;;2.90;99.90;;;;;;4879486;29;20559;-75
2021/11/28 07:11:55;;;;;;;22.20;20.53;;;2.90;99.90;;;;;;4879561;29;20457;-76
2021/11/28 07:14:21;;;;;;;21.60;20.10;;;2.80;99.90;;;;;;4879928;29;20462;-75
2021/11/28 07:16:48;;;;;;;21.93;20.43;;;2.80;99.90;;;;;;4879702;29;20462;-76
2021/11/28 07:19:15;;;;;;;20.90;19.23;;;2.90;99.90;;;;;;4879515;29;20475;-76
2021/11/28 07:21:41;;;;;;;21.10;19.50;;;2.90;99.90;;;;;;4879573;29;20456;-76
2021/11/28 07:24:08;;;;;;;19.97;18.77;;;2.80;99.90;;;;;;4879503;29;20563;-76
2021/11/28 07:26:35;;;;;;;20.77;19.27;;;2.80;99.90;;;;;;4879707;29;20457;-75
2021/11/28 07:29:03;;;;;;;20.83;19.43;;;2.80;99.90;;;;;;4879273;29;20469;-75
2021/11/28 07:31:30;;;;;;;21.70;20.00;;;2.80;99.90;;;;;;4879478;29;20564;-75
2021/11/28 07:33:57;;;;;;;22.77;20.87;;;2.80;99.90;;;;;;4879020;29;20501;-76
2021/11/28 07:36:24;;;;;;;21.07;19.40;;;2.80;99.90;;;;;;4879124;29;20494;-75
2021/11/28 07:38:51;;;;;;;21.00;19.43;;;2.70;99.90;;;;;;4879304;29;20458;-75
2021/11/28 07:41:17;;;;;;;21.90;20.50;;;2.70;99.90;;;;;;4879353;29;20460;-75
2021/11/28 07:43:44;;;;;;;21.97;20.30;;;2.70;99.90;;;;;;4878980;29;20467;-75
2021/11/28 07:46:12;;;;;;;20.57;19.27;;;2.70;99.90;;;;;;4879028;29;20490;-76
2021/11/28 07:48:39;;;;;;;22.87;21.30;;;2.70;99.90;;;;;;4878994;29;20463;-76
2021/11/28 07:51:06;;;;;;;22.03;20.70;;;2.80;99.90;;;;;;4878867;29;20974;-77
2021/11/28 07:53:32;;;;;;;21.37;19.87;;;2.80;99.90;;;;;;4878811;29;20908;-77
2021/11/28 07:55:59;;;;;;;21.83;20.33;;;2.90;99.90;;;;;;4879014;29;20457;-77
2021/11/28 07:58:26;;;;;;;24.00;21.83;;;2.90;99.90;;;;;;4878829;29;20451;-78
2021/11/28 08:00:53;;;;;;;21.00;19.60;;;2.90;99.90;;;;;;4878919;29;20970;-79
2021/11/28 08:03:21;;;;;;;20.57;18.90;;;3.00;99.90;;;;;;4878503;29;20469;-77
2021/11/28 08:05:47;;;;;;;20.67;19.33;;;2.90;99.90;;;;;;4878706;29;20960;-76
2021/11/28 08:08:16;;;;;;;18.90;17.70;;;3.00;99.90;;;;;;4878968;29;20871;-76
2021/11/28 08:10:43;;;;;;;19.73;18.37;;;3.00;99.90;;;;;;4878877;29;20584;-77
2021/11/28 08:13:11;;;;;;;20.47;19.07;;;3.10;99.90;;;;;;4878380;29;20517;-75
2021/11/28 08:15:37;;;;;;;22.90;21.30;;;3.10;99.90;;;;;;4878592;29;20807;-76
2021/11/28 08:18:04;;;;;;;22.67;20.90;;;3.20;99.90;;;;;;4878668;29;20822;-76
2021/11/28 08:20:32;;;;;;;20.03;18.40;;;3.10;99.90;;;;;;4878789;29;20472;-77
2021/11/28 08:22:59;;;;;;;21.87;19.90;;;3.10;99.90;;;;;;4878531;29;20459;-76
2021/11/28 08:25:26;;;;;;;21.67;20.17;;;3.20;99.90;;;;;;4878130;29;20985;-77
2021/11/28 08:27:52;;;;;;;21.60;20.00;;;3.20;99.90;;;;;;4878475;29;20464;-75
2021/11/28 08:30:19;;;;;;;21.30;19.60;;;3.30;99.90;;;;;;4878712;29;20460;-76
2021/11/28 08:32:48;;;;;;;21.93;19.77;;;3.20;99.90;;;;;;4878382;29;20498;-75
2021/11/28 08:35:16;;;;;;;19.40;18.03;;;3.30;99.90;;;;;;4877969;29;20609;-74
2021/11/28 08:37:44;;;;;;;19.92;18.52;;;3.40;99.90;;;;;;4877768;29;20525;-74
2021/11/28 08:42:48;;;;;;;21.23;19.67;;;3.50;99.90;;;;;;5087799;27;20552;-73
2021/11/28 08:45:16;;;;;;;21.57;19.87;;;3.40;99.90;;;;;;5087912;28;20453;-72
2021/11/28 08:47:43;;;;;;;18.80;17.60;;;3.40;99.90;;;;;;5088027;28;20471;-86
2021/11/28 08:50:14;;;;;;;17.83;16.80;;;3.40;99.90;;;;;;5087731;28;20450;-81
2021/11/28 08:52:41;;;;;;;19.80;18.20;;;3.50;99.90;;;;;;5087465;28;20482;-79
2021/11/28 08:55:08;;;;;;;19.23;17.87;;;3.50;99.90;;;;;;5087510;28;20508;-77
2021/11/28 08:57:36;;;;;;;20.40;18.97;;;3.50;99.90;;;;;;5087482;28;20865;-76
2021/11/28 09:00:04;;;;;;;20.23;18.83;;;3.50;99.90;;;;;;5087610;28;20528;-80
2021/11/28 09:02:31;;;;;;;18.20;17.10;;;3.60;99.90;;;;;;5087576;28;20508;-75
2021/11/28 09:04:58;;;;;;;19.07;17.90;;;3.60;99.90;;;;;;5085272;28;20450;-75
2021/11/28 09:07:25;;;;;;;18.33;17.10;;;3.70;99.90;;;;;;5087463;28;20454;-75
2021/11/28 09:09:52;;;;;;;18.90;17.63;;;3.70;99.90;;;;;;5087070;28;20899;-75
2021/11/28 09:12:18;;;;;;;19.17;17.93;;;3.80;99.90;;;;;;5087106;28;20501;-74
2021/11/28 09:14:45;;;;;;;19.03;17.73;;;3.80;99.90;;;;;;5086896;28;20445;-74
2021/11/28 09:17:13;;;;;;;17.50;15.97;;;3.80;99.90;;;;;;5086901;28;20839;-74
2021/11/28 09:19:47;;;;;;;18.40;16.90;;;3.80;99.90;;;;;;5086464;28;20451;-75
2021/11/28 09:22:22;;;;;;;19.70;18.13;;;3.90;99.90;;;;;;5086918;28;20484;-74
2021/11/28 09:24:48;;;;;;;18.17;17.13;;;3.90;99.90;;;;;;5086476;28;20858;-74
2021/11/28 09:27:17;;;;;;;17.60;16.57;;;4.10;99.90;;;;;;5086616;28;20445;-74
2021/11/28 09:29:46;;;;;;;18.63;17.30;;;4.40;99.90;;;;;;5086712;28;20920;-75
2021/11/28 09:32:15;;;;;;;19.30;18.10;;;4.50;99.90;;;;;;5086989;28;20465;-75
2021/11/28 09:34:42;;;;;;;18.13;16.93;;;4.40;99.90;;;;;;5086498;28;20450;-74
2021/11/28 09:37:11;;;;;;;18.40;16.90;;;4.40;99.90;;;;;;5086419;28;20944;-74
2021/11/28 09:39:41;;;;;;;18.57;17.27;;;4.40;99.90;;;;;;5086264;28;21022;-74
2021/11/28 09:42:09;;;;;;;22.93;17.87;;;4.40;99.90;;;;;;5086302;28;20498;-75
2021/11/28 09:44:39;;;;;;;19.33;17.57;;;4.40;99.90;;;;;;5086428;28;20455;-74
2021/11/28 09:47:09;;;;;;;19.57;18.17;;;4.70;99.90;;;;;;5086305;28;20503;-75
2021/11/28 09:49:38;;;;;;;17.73;16.63;;;4.90;99.90;;;;;;5086460;28;20454;-74
2021/11/28 09:52:08;;;;;;;17.27;16.07;;;5.10;99.90;;;;;;5084294;28;20502;-74
2021/11/28 09:54:38;;;;;;;18.33;16.93;;;5.00;99.90;;;;;;5072759;28;20466;-75
2021/11/28 09:57:05;;;;;;;19.30;17.83;;;5.00;99.90;;;;;;5072558;28;20448;-76
2021/11/28 09:59:32;;;;;;;18.17;16.87;;;5.10;99.90;;;;;;5072614;28;20450;-74
2021/11/28 10:01:59;;;;;;;17.33;16.13;;;5.30;99.90;;;;;;5072666;28;20487;-75
2021/11/28 10:04:26;;;;;;;16.73;15.70;;;5.40;99.90;;;;;;5072792;28;20454;-74
2021/11/28 10:06:56;;;;;;;17.93;16.83;;;5.60;99.90;;;;;;5072739;28;20616;-74
2021/11/28 10:09:23;;;;;;;18.67;17.57;;;5.60;99.90;;;;;;5072529;28;20481;-74
2021/11/28 10:12:18;;;;;;;17.93;16.73;;;5.80;99.90;;;;;;5072384;28;20445;-74
2021/11/28 10:14:48;;;;;;;16.87;15.77;;;5.90;99.90;;;;;;5072586;28;20990;-74
2021/11/28 10:17:17;;;;;;;17.37;16.37;;;6.00;99.90;;;;;;5072861;28;20454;-74
2021/11/28 10:19:43;;;;;;;16.07;15.07;;;6.10;99.90;;;;;;5072805;28;20445;-74
2021/11/28 10:22:12;;;;;;;15.60;14.27;;;6.10;99.90;;;;;;5072813;28;20490;-74
2021/11/28 10:24:54;;;;;;;15.87;14.80;;;6.20;99.90;;;;;;5072499;28;20464;-75
2021/11/28 10:27:32;;;;;;;17.13;15.93;;;6.10;99.90;;;;;;5072642;28;20450;-75
2021/11/28 10:29:59;;;;;;;17.87;16.57;;;5.80;99.90;;;;;;5072687;28;20454;-75
2021/11/28 10:32:26;;;;;;;18.03;16.73;;;5.60;99.90;;;;;;5072415;28;20444;-74
2021/11/28 10:34:52;;;;;;;16.40;15.30;;;5.40;99.90;;;;;;5072764;28;20452;-75
2021/11/28 10:37:23;;;;;;;17.00;15.90;;;5.30;99.90;;;;;;5072117;28;20447;-74
2021/11/28 10:39:51;;;;;;;18.43;16.93;;;5.20;99.90;;;;;;5072333;28;20999;-74
2021/11/28 10:42:22;;;;;;;17.30;16.20;;;5.30;99.90;;;;;;5071933;28;20506;-75
2021/11/28 10:45:00;;;;;;;17.20;16.10;;;5.30;99.90;;;;;;5072132;28;20956;-74
2021/11/28 10:47:37;;;;;;;17.60;16.60;;;5.50;99.90;;;;;;5072202;28;20457;-74
2021/11/28 10:50:18;;;;;;;16.90;15.70;;;5.50;99.90;;;;;;5072263;28;20905;-74
2021/11/28 10:52:49;;;;;;;19.27;17.37;;;5.70;99.90;;;;;;5072123;28;20521;-74
2021/11/28 10:55:18;;;;;;;17.73;16.43;;;5.70;99.90;;;;;;5072128;28;20447;-74
2021/11/28 10:57:45;;;;;;;18.00;16.60;;;5.70;99.90;;;;;;5071753;28;20870;-74
2021/11/28 11:00:14;;;;;;;17.40;16.20;;;5.60;99.90;;;;;;5072238;28;20452;-74
2021/11/28 11:02:42;;;;;;;15.70;14.80;;;5.60;99.90;;;;;;5071842;28;20494;-74
2021/11/28 11:05:11;;;;;;;17.33;16.13;;;5.80;99.90;;;;;;5070705;28;20958;-74
2021/11/28 11:07:49;;;;;;;16.63;15.53;;;6.00;99.90;;;;;;5071932;28;20463;-74
2021/11/28 11:10:18;;;;;;;15.30;14.20;;;6.30;99.90;;;;;;5071663;28;20448;-74
2021/11/28 11:12:45;;;;;;;14.97;14.07;;;6.50;99.90;;;;;;5071631;28;20809;-75
2021/11/28 11:15:16;;;;;;;16.53;15.33;;;6.70;99.90;;;;;;5071504;28;20458;-75
2021/11/28 11:17:56;;;;;;;16.27;15.37;;;6.80;99.90;;;;;;5071558;28;20459;-74
2021/11/28 11:20:27;;;;;;;15.30;14.20;;;6.80;99.90;;;;;;5071490;28;20992;-74
2021/11/28 11:22:55;;;;;;;16.10;15.10;;;6.90;99.90;;;;;;5071346;28;20501;-74
2021/11/28 11:25:31;;;;;;;15.13;14.13;;;6.80;99.90;;;;;;5071104;28;20516;-74
2021/11/28 11:28:12;;;;;;;15.83;15.03;;;6.50;99.90;;;;;;5071358;28;20863;-74
2021/11/28 11:30:39;;;;;;;16.10;15.00;;;6.50;99.90;;;;;;5071545;28;20437;-74
2021/11/28 11:33:07;;;;;;;15.10;14.20;;;6.60;99.90;;;;;;5071391;28;20573;-74
2021/11/28 11:35:40;;;;;;;16.33;15.17;;;6.60;99.90;;;;;;5071074;28;20473;-74
2021/11/28 11:38:10;;;;;;;17.30;16.10;;;6.30;99.90;;;;;;5071249;28;20866;-74
2021/11/28 11:40:37;;;;;;;15.80;14.30;;;6.10;99.90;;;;;;5071169;28;20457;-74
2021/11/28 11:43:05;;;;;;;14.97;14.10;;;6.00;99.90;;;;;;5071026;28;20565;-74
2021/11/28 11:45:36;;;;;;;16.37;15.37;;;6.00;99.90;;;;;;5070887;28;20445;-76
2021/11/28 11:48:04;;;;;;;16.63;15.60;;;5.90;99.90;;;;;;5070935;28;20458;-76
2021/11/28 11:50:32;;;;;;;15.17;14.07;;;5.90;99.90;;;;;;5070805;28;20480;-75
2021/11/28 11:52:59;;;;;;;16.50;15.23;;;6.10;99.90;;;;;;5070973;28;20480;-75
2021/11/28 11:55:31;;;;;;;16.87;15.67;;;6.20;99.90;;;;;;5070775;28;20794;-75
2021/11/28 11:58:13;;;;;;;16.27;15.17;;;6.20;99.90;;;;;;5070756;28;20450;-75
2021/11/28 12:00:46;;;;;;;15.97;14.87;;;6.20;99.90;;;;;;5070897;28;20833;-75
2021/11/28 12:03:14;;;;;;;16.93;15.27;;;6.20;99.90;;;;;;5070633;28;20478;-75
2021/11/28 12:05:42;;;;;;;15.33;14.33;;;6.20;99.90;;;;;;5070325;28;20526;-75
2021/11/28 12:08:24;;;;;;;15.10;14.30;;;6.30;99.90;;;;;;5070927;28;20450;-75
2021/11/28 12:11:00;;;;;;;17.53;16.10;;;6.40;99.90;;;;;;5070715;28;20927;-75
2021/11/28 12:13:59;;;;;;;15.63;14.73;;;6.70;99.90;;;;;;5070672;28;20892;-75
2021/11/28 12:16:33;;;;;;;17.03;16.03;;;6.80;99.90;;;;;;5070077;28;20457;-76
2021/11/28 12:19:00;;;;;;;16.77;15.77;;;7.00;99.90;;;;;;5070370;28;20537;-75
2021/11/28 12:21:43;;;;;;;15.80;14.90;;;6.90;99.90;;;;;;5070434;28;20446;-75
2021/11/28 12:24:11;;;;;;;16.60;15.70;;;7.00;99.90;;;;;;5070405;28;20447;-75
2021/11/28 12:26:45;;;;;;;16.40;15.23;;;6.90;99.90;;;;;;5070229;28;20456;-75
2021/11/28 12:29:43;;;;;;;16.07;15.07;;;6.90;99.90;;;;;;5070510;28;20458;-75
2021/11/28 12:32:16;;;;;;;15.93;14.90;;;7.10;99.90;;;;;;5070054;28;20451;-75
2021/11/28 12:34:45;;;;;;;15.93;15.13;;;7.00;99.90;;;;;;5070192;28;20450;-74
2021/11/28 12:37:21;;;;;;;15.10;14.30;;;7.10;99.90;;;;;;5070101;28;20973;-75
2021/11/28 12:39:48;;;;;;;16.40;15.40;;;7.20;99.90;;;;;;5068643;28;20481;-75
2021/11/28 12:42:21;;;;;;;16.07;15.13;;;7.20;99.90;;;;;;5069830;28;20907;-75
2021/11/28 12:45:02;;;;;;;15.43;14.50;;;7.10;99.90;;;;;;5070299;28;20466;-74